Terminal Aerodrome Forecast
Issued by NWS Wichita, KS

Home | Current Version | Previous Version | Text Only | Print | Product List | Glossary On
Versions: 1 2 3 4 5 6 7 8 9 10 11 12
000
FTUS43 KICT 042320
TAFICT
TAF
KICT 042320Z 0500/0524 16013G20KT P6SM FEW200
     FM050100 16010KT P6SM FEW200
     FM051600 18015G23KT P6SM SCT200=

USA.gov is the U.S. government's official web portal to all federal, state and local government web resources and services.